createdAt,value
2017-09-15T00:01:11.680Z,1.80
2017-09-15T00:03:39.397Z,2.00
2017-09-15T00:06:07.123Z,1.75
2017-09-15T00:08:34.853Z,2.00
2017-09-15T00:11:03.350Z,1.60
2017-09-15T00:13:31.070Z,1.60
2017-09-15T00:15:58.928Z,2.22
2017-09-15T00:18:26.795Z,1.80
2017-09-15T00:20:54.711Z,1.87
2017-09-15T00:23:23.349Z,1.60
2017-09-15T00:25:51.221Z,1.80
2017-09-15T00:28:19.017Z,2.05
2017-09-15T00:30:47.668Z,2.00
2017-09-15T00:33:15.536Z,1.80
2017-09-15T00:35:43.403Z,2.28
2017-09-15T00:38:11.168Z,2.20
2017-09-15T00:40:39.039Z,2.00
2017-09-15T00:43:06.782Z,1.60
2017-09-15T00:45:34.522Z,2.08
2017-09-15T00:48:03.014Z,1.92
2017-09-15T00:50:30.794Z,2.00
2017-09-15T00:52:58.577Z,1.80
2017-09-15T00:55:26.443Z,1.67
2017-09-15T00:57:54.214Z,1.90
2017-09-15T01:00:22.076Z,1.95
2017-09-15T01:02:49.819Z,1.65
2017-09-15T01:05:17.707Z,2.00
2017-09-15T01:07:45.426Z,2.33
2017-09-15T01:10:13.239Z,1.77
2017-09-15T01:12:40.966Z,2.20
2017-09-15T01:15:09.349Z,2.25
2017-09-15T01:17:37.249Z,2.33
2017-09-15T01:20:05.121Z,2.00
2017-09-15T01:22:32.990Z,2.00
2017-09-15T01:25:00.854Z,1.87
2017-09-15T01:27:28.723Z,2.42
2017-09-15T01:29:56.593Z,1.95
2017-09-15T01:32:24.456Z,2.20
2017-09-15T01:34:52.322Z,1.80
2017-09-15T01:37:20.202Z,2.10
2017-09-15T01:39:48.056Z,2.37
2017-09-15T01:42:15.923Z,2.40
2017-09-15T01:44:43.789Z,1.90
2017-09-15T01:47:11.760Z,2.60
2017-09-15T01:49:39.623Z,2.00
2017-09-15T01:52:07.338Z,1.85
2017-09-15T01:54:35.819Z,2.20
2017-09-15T01:57:04.285Z,2.10
2017-09-15T01:59:32.762Z,1.92
2017-09-15T02:02:00.602Z,2.17
2017-09-15T02:04:28.469Z,2.40
2017-09-15T02:06:56.336Z,2.35
2017-09-15T02:09:24.058Z,2.33
2017-09-15T02:11:51.969Z,2.65
2017-09-15T02:14:19.836Z,3.40
2017-09-15T02:16:47.703Z,2.08
2017-09-15T02:19:15.569Z,1.80
2017-09-15T02:21:43.437Z,1.90
2017-09-15T02:24:11.171Z,1.95
2017-09-15T02:26:38.968Z,1.92
2017-09-15T02:29:06.835Z,2.30
2017-09-15T02:31:34.702Z,2.10
2017-09-15T02:34:02.569Z,1.90
2017-09-15T02:36:30.437Z,2.55
2017-09-15T02:38:58.307Z,2.10
2017-09-15T02:41:26.170Z,2.12
2017-09-15T02:43:54.038Z,2.08
2017-09-15T02:46:21.906Z,2.30
2017-09-15T02:48:49.617Z,2.20
2017-09-15T02:51:18.256Z,2.30
2017-09-15T02:53:45.977Z,2.97
2017-09-15T02:56:13.681Z,2.33
2017-09-15T02:58:41.550Z,2.72
2017-09-15T03:01:09.417Z,2.03
2017-09-15T03:03:37.284Z,2.03
2017-09-15T03:06:05.151Z,2.33
2017-09-15T03:08:33.019Z,2.20
2017-09-15T03:11:00.886Z,2.00
2017-09-15T03:13:28.626Z,2.60
2017-09-15T03:15:56.346Z,2.05
2017-09-15T03:18:25.001Z,2.70
2017-09-15T03:20:52.867Z,2.75
2017-09-15T03:23:20.734Z,2.25
2017-09-15T03:25:48.601Z,3.30
2017-09-15T03:28:16.469Z,2.60
2017-09-15T03:30:44.186Z,2.15
2017-09-15T03:33:11.893Z,2.50
2017-09-15T03:35:39.764Z,2.90
2017-09-15T03:38:07.631Z,2.50
2017-09-15T03:40:35.498Z,2.72
2017-09-15T03:43:03.366Z,2.45
2017-09-15T03:45:31.237Z,2.50
2017-09-15T03:47:59.100Z,2.50
2017-09-15T03:50:26.967Z,2.33
2017-09-15T03:52:54.838Z,2.35
2017-09-15T03:55:22.559Z,2.83
2017-09-15T03:57:50.365Z,2.75
2017-09-15T04:00:18.232Z,3.08
2017-09-15T04:02:46.100Z,2.40
2017-09-15T04:05:13.967Z,2.80
2017-09-15T04:07:41.834Z,2.83
2017-09-15T04:10:09.701Z,2.60
2017-09-15T04:12:37.569Z,2.97
2017-09-15T04:15:05.288Z,3.78
2017-09-15T04:17:33.042Z,3.17
2017-09-15T04:20:01.682Z,2.80
2017-09-15T04:22:29.393Z,3.30
2017-09-15T04:24:58.037Z,3.80
2017-09-15T04:27:25.900Z,3.85
2017-09-15T04:29:53.614Z,3.72
2017-09-15T04:32:21.353Z,3.45
2017-09-15T04:34:49.199Z,4.80
2017-09-15T04:37:17.064Z,3.53
2017-09-15T04:39:44.930Z,4.03
2017-09-15T04:42:12.796Z,3.65
2017-09-15T04:44:40.662Z,4.10
2017-09-15T04:47:08.531Z,4.82
2017-09-15T04:49:36.245Z,4.25
2017-09-15T04:52:03.965Z,4.15
2017-09-15T04:54:31.677Z,4.90
2017-09-15T04:56:59.394Z,4.85
2017-09-15T04:59:27.252Z,5.05
2017-09-15T05:01:55.121Z,4.18
2017-09-15T05:04:22.987Z,5.00
2017-09-15T05:06:50.723Z,6.00
2017-09-15T05:09:18.434Z,5.15
2017-09-15T05:11:46.147Z,5.78
2017-09-15T05:14:13.850Z,5.75
2017-09-15T05:16:42.327Z,6.28
2017-09-15T05:19:10.234Z,5.85
2017-09-15T05:21:38.706Z,6.57
2017-09-15T05:24:07.184Z,6.80
2017-09-15T05:26:34.934Z,6.95
2017-09-15T05:29:02.645Z,6.65
2017-09-15T05:31:30.351Z,7.55
2017-09-15T05:33:58.065Z,7.35
2017-09-15T05:36:25.790Z,7.55
2017-09-15T05:38:53.543Z,6.60
2017-09-15T05:41:21.330Z,7.60
2017-09-15T05:43:49.046Z,8.15
2017-09-15T05:46:16.758Z,7.60
2017-09-15T05:48:44.459Z,7.15
2017-09-15T05:51:12.166Z,7.25
2017-09-15T05:53:40.638Z,7.72
2017-09-15T05:56:08.346Z,6.97
2017-09-15T05:58:36.818Z,7.32
2017-09-15T06:01:05.307Z,7.50
2017-09-15T06:03:33.790Z,7.70
2017-09-15T06:06:02.270Z,8.20
2017-09-15T06:08:30.742Z,7.20
2017-09-15T06:10:58.490Z,7.40
2017-09-15T06:13:26.227Z,7.10
2017-09-15T06:15:53.938Z,6.90
2017-09-15T06:18:22.410Z,6.47
2017-09-15T06:20:50.109Z,7.20
2017-09-15T06:23:17.812Z,5.55
2017-09-15T06:25:45.518Z,4.75
2017-09-15T06:28:14.162Z,4.87
2017-09-15T06:30:42.029Z,5.15
2017-09-15T06:33:09.896Z,4.93
2017-09-15T06:35:37.764Z,4.43
2017-09-15T06:38:05.482Z,4.78
2017-09-15T06:40:33.294Z,4.32
2017-09-15T06:43:01.160Z,5.43
2017-09-15T06:45:29.029Z,4.80
2017-09-15T06:47:56.895Z,4.70
2017-09-15T06:50:24.766Z,4.93
2017-09-15T06:52:52.630Z,5.10
2017-09-15T06:55:20.505Z,4.80
2017-09-15T06:57:48.364Z,3.85
2017-09-15T07:00:16.233Z,4.90
2017-09-15T07:02:43.950Z,4.07
2017-09-15T07:05:11.697Z,4.28
2017-09-15T07:07:40.194Z,4.97
2017-09-15T07:10:07.910Z,4.20
2017-09-15T07:12:35.618Z,4.85
2017-09-15T07:15:03.336Z,4.10
2017-09-15T07:17:31.042Z,5.35
2017-09-15T07:19:59.683Z,5.15
2017-09-15T07:22:27.550Z,4.62
2017-09-15T07:24:55.421Z,4.78
2017-09-15T07:27:23.146Z,5.20
2017-09-15T07:29:50.950Z,4.60
2017-09-15T07:32:18.750Z,5.45
2017-09-15T07:34:47.300Z,4.45
2017-09-15T07:37:15.023Z,4.20
2017-09-15T07:39:42.734Z,5.32
2017-09-15T07:42:10.474Z,4.70
2017-09-15T07:44:38.253Z,4.00
2017-09-15T07:47:06.120Z,4.82
2017-09-15T07:49:33.987Z,4.45
2017-09-15T07:52:01.856Z,4.53
2017-09-15T07:54:29.721Z,4.45
2017-09-15T07:56:57.590Z,4.12
2017-09-15T07:59:25.385Z,4.55
2017-09-15T08:01:53.089Z,5.18
2017-09-15T08:04:20.884Z,4.03
2017-09-15T08:06:48.751Z,4.00
2017-09-15T08:09:16.620Z,3.90
2017-09-15T08:11:44.486Z,4.00
2017-09-15T08:14:12.353Z,3.60
2017-09-15T08:16:40.089Z,3.92
2017-09-15T08:19:07.857Z,3.60
2017-09-15T08:21:35.567Z,3.42
2017-09-15T08:24:03.310Z,3.67
2017-09-15T08:26:31.179Z,3.47
2017-09-15T08:28:59.059Z,2.92
2017-09-15T08:31:26.913Z,2.97
2017-09-15T08:33:54.634Z,2.67
2017-09-15T08:36:22.350Z,2.92
2017-09-15T08:38:50.208Z,2.97
2017-09-15T08:41:18.074Z,3.03
2017-09-15T08:43:45.942Z,2.97
2017-09-15T08:46:13.693Z,2.55
2017-09-15T08:48:41.402Z,3.08
2017-09-15T08:51:10.055Z,2.50
2017-09-15T08:53:37.923Z,2.97
2017-09-15T08:56:05.790Z,3.83
2017-09-15T08:58:33.590Z,3.15
2017-09-15T09:01:02.242Z,3.72
2017-09-15T09:03:29.950Z,4.10
2017-09-15T09:05:58.430Z,4.15
2017-09-15T09:08:26.906Z,3.30
2017-09-15T09:10:55.386Z,3.83
2017-09-15T09:13:23.867Z,4.60
2017-09-15T09:15:52.338Z,3.50
2017-09-15T09:18:20.070Z,3.72
2017-09-15T09:20:47.774Z,3.60
2017-09-15T09:23:16.254Z,3.05
2017-09-15T09:25:44.734Z,3.60
2017-09-15T09:28:12.450Z,3.25
2017-09-15T09:30:40.234Z,3.55
2017-09-15T09:33:08.107Z,3.92
2017-09-15T09:35:35.817Z,2.92
2017-09-15T09:38:03.539Z,3.30
2017-09-15T09:40:31.271Z,3.00
2017-09-15T09:42:58.978Z,3.08
2017-09-15T09:45:26.703Z,3.40
2017-09-15T09:47:54.426Z,3.15
2017-09-15T09:50:22.912Z,3.17
2017-09-15T09:52:51.393Z,3.10
2017-09-15T09:55:19.914Z,3.67
2017-09-15T09:57:47.667Z,2.80
2017-09-15T10:00:15.417Z,3.28
2017-09-15T10:02:43.162Z,3.55
2017-09-15T10:05:11.647Z,2.58
2017-09-15T10:07:40.141Z,3.30
2017-09-15T10:10:07.841Z,3.00
2017-09-15T10:12:35.567Z,3.42
2017-09-15T10:15:03.276Z,3.58
2017-09-15T10:17:30.977Z,4.07
2017-09-15T10:19:59.453Z,2.90
2017-09-15T10:22:27.159Z,3.05
2017-09-15T10:24:54.871Z,2.70
2017-09-15T10:27:22.582Z,3.03
2017-09-15T10:29:50.286Z,2.95
2017-09-15T10:32:17.999Z,3.25
2017-09-15T10:34:45.719Z,3.65
2017-09-15T10:37:13.418Z,2.83
2017-09-15T10:39:41.892Z,2.75
2017-09-15T10:42:10.365Z,3.00
2017-09-15T10:44:38.849Z,2.60
2017-09-15T10:47:07.331Z,3.78
2017-09-15T10:49:35.806Z,2.80
2017-09-15T10:52:04.285Z,3.55
2017-09-15T10:54:31.990Z,2.90
2017-09-15T10:56:59.698Z,3.45
2017-09-15T10:59:33.126Z,2.70
2017-09-15T11:02:01.592Z,2.35
2017-09-15T11:04:29.297Z,2.42
2017-09-15T11:06:57.003Z,2.75
2017-09-15T11:09:24.715Z,2.40
2017-09-15T11:11:52.439Z,2.10
2017-09-15T11:14:20.151Z,2.35
2017-09-15T11:16:47.858Z,2.37
2017-09-15T11:19:15.579Z,2.45
2017-09-15T11:21:43.281Z,2.67
2017-09-15T11:24:11.026Z,2.75
2017-09-15T11:26:38.742Z,3.03
2017-09-15T11:29:07.222Z,2.65
2017-09-15T11:31:35.697Z,2.35
2017-09-15T11:34:04.198Z,3.10
2017-09-15T11:36:32.116Z,2.83
2017-09-15T11:38:59.838Z,2.80
2017-09-15T11:41:27.545Z,2.20
2017-09-15T11:43:55.258Z,2.40
2017-09-15T11:46:22.970Z,2.05
2017-09-15T11:48:50.688Z,2.67
2017-09-15T11:51:18.403Z,2.72
2017-09-15T11:53:46.879Z,2.50
2017-09-15T11:56:14.590Z,2.97
2017-09-15T11:58:43.071Z,3.22
2017-09-15T12:01:11.555Z,3.00
2017-09-15T12:03:40.026Z,2.87
2017-09-15T12:06:08.514Z,1.40
2017-09-15T12:08:36.994Z,1.20
2017-09-15T12:11:05.462Z,1.20
2017-09-15T12:13:33.299Z,1.40
2017-09-15T12:16:01.030Z,1.30
2017-09-15T12:18:28.771Z,1.20
2017-09-15T12:20:57.242Z,1.15
2017-09-15T12:23:25.722Z,1.20
2017-09-15T12:25:54.198Z,1.40
2017-09-15T12:28:21.916Z,1.30
2017-09-15T12:30:49.625Z,1.37
2017-09-15T12:33:17.335Z,1.23
2017-09-15T12:35:45.065Z,1.27
2017-09-15T12:38:13.543Z,1.20
2017-09-15T12:40:42.017Z,1.20
2017-09-15T12:43:09.734Z,1.12
2017-09-15T12:45:37.445Z,1.10
2017-09-15T12:48:05.146Z,1.40
2017-09-15T12:50:32.857Z,1.33
2017-09-15T12:53:00.578Z,1.33
2017-09-15T12:55:28.291Z,1.15
2017-09-15T12:57:56.021Z,1.10
2017-09-15T13:00:23.722Z,1.30
2017-09-15T13:02:51.426Z,1.30
2017-09-15T13:05:19.150Z,1.33
2017-09-15T13:07:46.851Z,1.30
2017-09-15T13:10:14.562Z,1.30
2017-09-15T13:12:42.423Z,1.45
2017-09-15T13:15:10.290Z,1.40
2017-09-15T13:17:38.157Z,1.40
2017-09-15T13:20:06.024Z,1.25
2017-09-15T13:22:33.734Z,1.30
2017-09-15T13:25:02.214Z,1.25
2017-09-15T13:27:30.690Z,1.08
2017-09-15T13:29:59.166Z,1.40
2017-09-15T13:32:27.637Z,1.23
2017-09-15T13:34:55.348Z,1.42
2017-09-15T13:37:23.061Z,1.20
2017-09-15T13:39:50.761Z,1.40
2017-09-15T13:42:18.472Z,1.42
2017-09-15T13:44:46.174Z,1.60
2017-09-15T13:47:14.647Z,1.50
2017-09-15T13:49:43.130Z,1.77
2017-09-15T13:52:11.610Z,1.62
2017-09-15T13:54:40.086Z,1.30
2017-09-15T13:57:07.794Z,1.58
2017-09-15T13:59:35.498Z,1.67
2017-09-15T14:02:03.203Z,1.45
2017-09-15T14:04:30.923Z,2.62
2017-09-15T14:06:58.625Z,1.52
2017-09-15T14:09:27.090Z,1.60
2017-09-15T14:11:55.558Z,1.92
2017-09-15T14:14:23.274Z,1.65
2017-09-15T14:16:50.983Z,1.87
2017-09-15T14:19:18.698Z,1.85
2017-09-15T14:21:46.404Z,1.58
2017-09-15T14:24:14.116Z,1.77
2017-09-15T14:26:41.820Z,1.90
2017-09-15T14:29:09.546Z,1.60
2017-09-15T14:31:37.274Z,1.60
2017-09-15T14:34:05.989Z,1.70
2017-09-15T14:36:33.804Z,1.52
2017-09-15T14:39:01.668Z,1.92
2017-09-15T14:41:29.536Z,1.75
2017-09-15T14:43:57.435Z,1.80
2017-09-15T14:46:26.090Z,1.35
2017-09-15T14:48:53.956Z,1.50
2017-09-15T14:51:21.666Z,1.40
2017-09-15T14:53:50.142Z,1.87
2017-09-15T14:56:18.625Z,2.17
2017-09-15T14:58:47.095Z,1.50
2017-09-15T15:01:15.567Z,1.83
2017-09-15T15:03:43.271Z,1.70
2017-09-15T15:06:11.018Z,2.05
2017-09-15T15:08:39.486Z,2.20
2017-09-15T15:11:07.250Z,1.50
2017-09-15T15:13:34.961Z,1.55
2017-09-15T15:16:02.662Z,1.67
2017-09-15T15:18:30.370Z,1.60
2017-09-15T15:20:58.071Z,1.67
2017-09-15T15:23:25.783Z,2.08
2017-09-15T15:25:54.254Z,1.58
2017-09-15T15:28:22.723Z,1.73
2017-09-15T15:30:50.467Z,2.00
2017-09-15T15:33:18.263Z,1.65
2017-09-15T15:35:46.815Z,1.20
2017-09-15T15:38:14.681Z,1.25
2017-09-15T15:40:42.549Z,2.30
2017-09-15T15:43:10.416Z,1.55
2017-09-15T15:45:38.284Z,1.12
2017-09-15T15:48:06.151Z,1.60
2017-09-15T15:50:34.019Z,1.70
2017-09-15T15:53:01.886Z,1.45
2017-09-15T15:55:29.753Z,1.52
2017-09-15T15:57:57.621Z,1.60
2017-09-15T16:00:25.488Z,1.50
2017-09-15T16:02:53.356Z,1.70
2017-09-15T16:05:21.062Z,1.27
2017-09-15T16:07:49.560Z,1.52
2017-09-15T16:10:17.275Z,1.60
2017-09-15T16:12:45.521Z,1.52
2017-09-15T16:15:13.243Z,1.80
2017-09-15T16:17:41.735Z,1.70
2017-09-15T16:20:09.450Z,2.03
2017-09-15T16:22:38.051Z,2.85
2017-09-15T16:25:05.757Z,3.67
2017-09-15T16:27:33.514Z,2.25
2017-09-15T16:30:01.274Z,2.47
2017-09-15T16:32:29.815Z,2.90
2017-09-15T16:34:57.583Z,3.10
2017-09-15T16:37:24.818Z,1.85
2017-09-15T16:39:58.112Z,2.15
2017-09-15T16:42:31.571Z,2.22
2017-09-15T16:45:05.038Z,2.00
2017-09-15T16:47:38.454Z,3.20
2017-09-15T16:50:06.962Z,2.60
2017-09-15T16:52:34.698Z,2.30
2017-09-15T16:55:03.178Z,2.20
2017-09-15T16:57:31.658Z,2.12
2017-09-15T17:00:00.314Z,2.37
2017-09-15T17:02:28.181Z,2.03
2017-09-15T17:04:56.047Z,2.10
2017-09-15T17:07:23.915Z,2.47
2017-09-15T17:09:51.633Z,2.30
2017-09-15T17:12:19.338Z,2.62
2017-09-15T17:14:47.038Z,2.87
2017-09-15T17:17:15.510Z,2.10
2017-09-15T17:19:43.218Z,2.92
2017-09-15T17:22:10.965Z,3.05
2017-09-15T17:24:39.434Z,3.00
2017-09-15T17:27:07.903Z,2.58
2017-09-15T17:29:35.620Z,3.10
2017-09-15T17:32:03.323Z,2.15
2017-09-15T17:34:31.026Z,2.17
2017-09-15T17:36:58.738Z,2.80
2017-09-15T17:39:26.453Z,1.80
2017-09-15T17:41:54.199Z,2.78
2017-09-15T17:44:22.663Z,2.25
2017-09-15T17:46:50.438Z,2.15
2017-09-15T17:49:18.906Z,2.47
2017-09-15T17:51:46.617Z,2.50
2017-09-15T17:54:18.160Z,2.30
2017-09-15T17:56:50.179Z,2.50
2017-09-15T17:59:20.265Z,3.90
2017-09-15T18:01:50.584Z,4.37
2017-09-15T18:04:20.243Z,5.47
2017-09-15T18:06:49.983Z,4.37
2017-09-15T18:09:20.099Z,3.40
2017-09-15T18:11:48.574Z,2.83
2017-09-15T18:14:17.063Z,2.67
2017-09-15T18:16:45.560Z,2.40
2017-09-15T18:19:14.185Z,3.00
2017-09-15T18:21:41.954Z,2.62
2017-09-15T18:24:09.827Z,2.45
2017-09-15T18:26:38.425Z,3.47
2017-09-15T18:29:06.985Z,3.17
2017-09-15T18:31:34.746Z,3.00
2017-09-15T18:34:02.719Z,2.60
2017-09-15T18:36:30.447Z,3.17
2017-09-15T18:38:58.170Z,2.70
2017-09-15T18:41:26.140Z,4.00
2017-09-15T18:43:53.866Z,2.60
2017-09-15T18:46:21.654Z,2.25
2017-09-15T18:48:51.744Z,2.10
2017-09-15T18:51:21.802Z,2.30
2017-09-15T18:53:49.523Z,2.40
2017-09-15T18:56:17.315Z,2.28
2017-09-15T18:58:45.081Z,2.17
2017-09-15T19:01:12.835Z,2.33
2017-09-15T19:03:40.631Z,2.40
2017-09-15T19:06:08.363Z,2.30
2017-09-15T19:08:37.042Z,2.20
2017-09-15T19:11:04.791Z,2.37
2017-09-15T19:13:32.804Z,2.90
2017-09-15T19:16:00.922Z,2.78
2017-09-15T19:18:28.737Z,5.55
2017-09-15T19:20:56.807Z,6.05
2017-09-15T19:23:24.980Z,5.35
2017-09-15T19:25:52.940Z,5.72
2017-09-15T19:28:21.354Z,5.25
2017-09-15T19:30:49.122Z,5.37
2017-09-15T19:33:16.885Z,4.80
2017-09-15T19:35:44.730Z,3.53
2017-09-15T19:38:12.439Z,3.42
2017-09-15T19:40:41.724Z,3.65
2017-09-15T19:43:10.191Z,3.22
2017-09-15T19:45:38.040Z,3.37
2017-09-15T19:48:05.907Z,3.45
2017-09-15T19:50:33.782Z,3.75
2017-09-15T19:53:01.647Z,2.60
2017-09-15T19:55:29.820Z,3.20
2017-09-15T19:57:57.623Z,3.42
2017-09-15T20:00:27.008Z,3.80
2017-09-15T20:02:55.272Z,3.45
2017-09-15T20:05:22.986Z,3.90
2017-09-15T20:07:50.706Z,3.53
2017-09-15T20:10:18.490Z,3.55
2017-09-15T20:12:46.966Z,3.95
2017-09-15T20:15:15.523Z,3.62
2017-09-15T20:17:43.387Z,3.47
2017-09-15T20:20:11.254Z,3.83
2017-09-15T20:22:39.122Z,4.07
2017-09-15T20:25:06.989Z,4.45
2017-09-15T20:27:34.857Z,4.12
2017-09-15T20:30:02.562Z,4.75
2017-09-15T20:32:31.038Z,4.40
2017-09-15T20:34:59.504Z,4.12
2017-09-15T20:37:27.352Z,4.55
2017-09-15T20:39:55.054Z,4.65
2017-09-15T20:42:23.531Z,4.03
2017-09-15T20:44:52.077Z,3.65
2017-09-15T20:47:19.945Z,3.83
2017-09-15T20:49:47.816Z,4.72
2017-09-15T20:52:15.534Z,3.85
2017-09-15T20:54:43.235Z,4.70
2017-09-15T20:57:11.108Z,4.20
2017-09-15T20:59:38.871Z,3.28
2017-09-15T21:02:06.739Z,3.12
2017-09-15T21:04:34.450Z,3.22
2017-09-15T21:07:02.932Z,3.58
2017-09-15T21:09:31.410Z,3.62
2017-09-15T21:12:00.051Z,3.35
2017-09-15T21:14:27.776Z,2.50
2017-09-15T21:16:55.529Z,2.90
2017-09-15T21:19:24.165Z,2.70
2017-09-15T21:21:52.033Z,3.47
2017-09-15T21:24:19.830Z,3.10
2017-09-15T21:26:48.339Z,2.80
2017-09-15T21:29:16.148Z,3.28
2017-09-15T21:31:44.014Z,2.78
2017-09-15T21:34:11.881Z,3.00
2017-09-15T21:36:39.748Z,3.37
2017-09-15T21:39:07.615Z,3.00
2017-09-15T21:41:35.483Z,3.53
2017-09-15T21:44:03.345Z,4.15
2017-09-15T21:46:31.218Z,3.97
2017-09-15T21:48:59.084Z,4.30
2017-09-15T21:51:26.960Z,4.00
2017-09-15T21:53:54.819Z,4.20
2017-09-15T21:56:22.687Z,3.22
2017-09-15T21:58:50.554Z,4.10
2017-09-15T22:01:18.422Z,4.75
2017-09-15T22:03:51.751Z,4.32
2017-09-15T22:06:20.403Z,3.30
2017-09-15T22:08:48.271Z,4.53
2017-09-15T22:13:50.011Z,4.55
2017-09-15T22:16:17.812Z,4.15
2017-09-15T22:18:45.680Z,4.40
2017-09-15T22:21:13.390Z,4.65
2017-09-15T22:23:42.232Z,4.45
2017-09-15T22:26:10.099Z,4.35
2017-09-15T22:28:37.967Z,5.28
2017-09-15T22:31:05.835Z,4.75
2017-09-15T22:33:33.701Z,4.20
2017-09-15T22:36:01.568Z,6.97
2017-09-15T22:38:29.437Z,2.90
2017-09-15T22:40:57.305Z,3.00
2017-09-15T22:43:25.171Z,3.33
2017-09-15T22:45:53.038Z,4.30
2017-09-15T22:48:20.909Z,3.62
2017-09-15T22:50:48.772Z,3.45
2017-09-15T22:53:16.515Z,4.18
2017-09-15T22:55:44.222Z,4.35
2017-09-15T22:58:12.072Z,3.90
2017-09-15T23:00:39.935Z,4.62
2017-09-15T23:03:07.802Z,3.95
2017-09-15T23:05:35.675Z,4.50
2017-09-15T23:08:03.389Z,4.37
2017-09-15T23:10:31.096Z,3.75
2017-09-15T23:12:58.967Z,4.07
2017-09-15T23:15:26.838Z,3.83
2017-09-15T23:17:54.549Z,4.47
2017-09-15T23:20:22.255Z,4.20
2017-09-15T23:22:50.126Z,3.70
2017-09-15T23:25:17.917Z,2.87
2017-09-15T23:27:45.758Z,3.95
2017-09-15T23:30:13.466Z,3.17
2017-09-15T23:32:41.934Z,4.47
2017-09-15T23:35:10.486Z,2.75
2017-09-15T23:37:38.354Z,2.78
2017-09-15T23:40:06.058Z,3.97
2017-09-15T23:42:34.525Z,6.95
2017-09-15T23:45:02.369Z,3.78
2017-09-15T23:47:30.232Z,3.78
2017-09-15T23:49:57.938Z,4.40
2017-09-15T23:52:26.585Z,4.25
2017-09-15T23:54:54.450Z,3.03
2017-09-15T23:57:22.316Z,3.10
2017-09-15T23:59:50.184Z,3.90
